sensor_id;sensor_type;location;lat;lon;timestamp;P1;durP1;ratioP1;P2;durP2;ratioP2
4748;SDS011;2388;53.582;9.962;2023-11-19T00:00:26;5.43;;;4.93;;
4748;SDS011;2388;53.582;9.962;2023-11-19T00:02:51;7.27;;;5.13;;
4748;SDS011;2388;53.582;9.962;2023-11-19T00:05:17;5.50;;;5.00;;
4748;SDS011;2388;53.582;9.962;2023-11-19T00:07:43;9.13;;;5.77;;
4748;SDS011;2388;53.582;9.962;2023-11-19T00:10:09;6.00;;;5.37;;
4748;SDS011;2388;53.582;9.962;2023-11-19T00:12:37;5.13;;;4.63;;
4748;SDS011;2388;53.582;9.962;2023-11-19T00:15:03;4.60;;;4.20;;
4748;SDS011;2388;53.582;9.962;2023-11-19T00:17:29;5.90;;;4.67;;
4748;SDS011;2388;53.582;9.962;2023-11-19T00:19:55;6.20;;;4.70;;
4748;SDS011;2388;53.582;9.962;2023-11-19T00:22:20;4.80;;;4.40;;
4748;SDS011;2388;53.582;9.962;2023-11-19T00:24:47;5.33;;;4.60;;
4748;SDS011;2388;53.582;9.962;2023-11-19T00:27:12;4.57;;;4.17;;
4748;SDS011;2388;53.582;9.962;2023-11-19T00:29:38;3.83;;;3.50;;
4748;SDS011;2388;53.582;9.962;2023-11-19T00:32:03;4.33;;;3.93;;
4748;SDS011;2388;53.582;9.962;2023-11-19T00:34:30;3.43;;;3.20;;
4748;SDS011;2388;53.582;9.962;2023-11-19T00:36:56;3.90;;;3.60;;
4748;SDS011;2388;53.582;9.962;2023-11-19T00:39:21;3.57;;;3.37;;
4748;SDS011;2388;53.582;9.962;2023-11-19T00:41:47;3.53;;;3.23;;
4748;SDS011;2388;53.582;9.962;2023-11-19T00:44:13;3.57;;;3.37;;
4748;SDS011;2388;53.582;9.962;2023-11-19T00:46:38;3.77;;;3.23;;
4748;SDS011;2388;53.582;9.962;2023-11-19T00:49:04;3.70;;;3.37;;
4748;SDS011;2388;53.582;9.962;2023-11-19T00:51:30;2.70;;;2.60;;
4748;SDS011;2388;53.582;9.962;2023-11-19T00:53:56;3.23;;;3.00;;
4748;SDS011;2388;53.582;9.962;2023-11-19T00:56:22;3.50;;;2.87;;
4748;SDS011;2388;53.582;9.962;2023-11-19T00:58:48;3.57;;;3.30;;
4748;SDS011;2388;53.582;9.962;2023-11-19T01:01:13;3.80;;;3.40;;
4748;SDS011;2388;53.582;9.962;2023-11-19T01:03:39;3.20;;;3.00;;
4748;SDS011;2388;53.582;9.962;2023-11-19T01:06:04;3.00;;;2.80;;
4748;SDS011;2388;53.582;9.962;2023-11-19T01:08:30;3.10;;;2.90;;
4748;SDS011;2388;53.582;9.962;2023-11-19T01:10:56;3.57;;;3.27;;
4748;SDS011;2388;53.582;9.962;2023-11-19T01:13:22;2.53;;;2.43;;
4748;SDS011;2388;53.582;9.962;2023-11-19T01:15:47;3.33;;;3.07;;
4748;SDS011;2388;53.582;9.962;2023-11-19T01:18:13;2.83;;;2.63;;
4748;SDS011;2388;53.582;9.962;2023-11-19T01:20:38;2.40;;;2.20;;
4748;SDS011;2388;53.582;9.962;2023-11-19T01:23:04;3.07;;;2.77;;
4748;SDS011;2388;53.582;9.962;2023-11-19T01:25:30;2.37;;;2.17;;
4748;SDS011;2388;53.582;9.962;2023-11-19T01:27:55;2.23;;;2.13;;
4748;SDS011;2388;53.582;9.962;2023-11-19T01:30:23;2.60;;;2.40;;
4748;SDS011;2388;53.582;9.962;2023-11-19T01:32:49;1.90;;;1.80;;
4748;SDS011;2388;53.582;9.962;2023-11-19T01:35:15;1.93;;;1.80;;
4748;SDS011;2388;53.582;9.962;2023-11-19T01:37:40;2.40;;;2.30;;
4748;SDS011;2388;53.582;9.962;2023-11-19T01:40:06;3.83;;;1.93;;
4748;SDS011;2388;53.582;9.962;2023-11-19T01:42:40;2.40;;;2.30;;
4748;SDS011;2388;53.582;9.962;2023-11-19T01:45:06;2.10;;;2.00;;
4748;SDS011;2388;53.582;9.962;2023-11-19T01:47:35;2.50;;;2.30;;
4748;SDS011;2388;53.582;9.962;2023-11-19T01:50:01;2.73;;;2.60;;
4748;SDS011;2388;53.582;9.962;2023-11-19T01:52:31;2.40;;;2.20;;
4748;SDS011;2388;53.582;9.962;2023-11-19T01:54:59;2.93;;;2.40;;
4748;SDS011;2388;53.582;9.962;2023-11-19T01:57:25;1.80;;;1.70;;
4748;SDS011;2388;53.582;9.962;2023-11-19T01:59:51;2.10;;;2.00;;
4748;SDS011;2388;53.582;9.962;2023-11-19T02:02:18;3.33;;;1.77;;
4748;SDS011;2388;53.582;9.962;2023-11-19T02:04:49;1.70;;;1.60;;
4748;SDS011;2388;53.582;9.962;2023-11-19T02:07:14;1.63;;;1.53;;
4748;SDS011;2388;53.582;9.962;2023-11-19T02:09:42;1.80;;;1.70;;
4748;SDS011;2388;53.582;9.962;2023-11-19T02:12:08;1.80;;;1.70;;
4748;SDS011;2388;53.582;9.962;2023-11-19T02:14:36;1.50;;;1.40;;
4748;SDS011;2388;53.582;9.962;2023-11-19T02:17:02;1.43;;;1.33;;
4748;SDS011;2388;53.582;9.962;2023-11-19T02:19:27;1.30;;;1.20;;
4748;SDS011;2388;53.582;9.962;2023-11-19T02:21:53;2.03;;;1.20;;
4748;SDS011;2388;53.582;9.962;2023-11-19T02:24:20;1.13;;;1.10;;
4748;SDS011;2388;53.582;9.962;2023-11-19T02:29:30;1.30;;;1.17;;
4748;SDS011;2388;53.582;9.962;2023-11-19T02:31:56;1.47;;;1.37;;
4748;SDS011;2388;53.582;9.962;2023-11-19T02:34:21;1.40;;;1.20;;
4748;SDS011;2388;53.582;9.962;2023-11-19T02:36:47;0.90;;;0.90;;
4748;SDS011;2388;53.582;9.962;2023-11-19T02:39:12;1.10;;;1.10;;
4748;SDS011;2388;53.582;9.962;2023-11-19T02:41:38;0.97;;;0.97;;
4748;SDS011;2388;53.582;9.962;2023-11-19T02:44:04;0.80;;;0.80;;
4748;SDS011;2388;53.582;9.962;2023-11-19T02:46:31;0.70;;;0.70;;
4748;SDS011;2388;53.582;9.962;2023-11-19T02:48:57;0.77;;;0.50;;
4748;SDS011;2388;53.582;9.962;2023-11-19T02:51:22;0.90;;;0.50;;
4748;SDS011;2388;53.582;9.962;2023-11-19T02:53:48;0.77;;;0.50;;
4748;SDS011;2388;53.582;9.962;2023-11-19T02:56:13;0.80;;;0.80;;
4748;SDS011;2388;53.582;9.962;2023-11-19T02:58:50;0.60;;;0.60;;
4748;SDS011;2388;53.582;9.962;2023-11-19T03:01:23;0.93;;;0.80;;
4748;SDS011;2388;53.582;9.962;2023-11-19T03:03:57;1.00;;;0.90;;
4748;SDS011;2388;53.582;9.962;2023-11-19T03:06:23;0.80;;;0.80;;
4748;SDS011;2388;53.582;9.962;2023-11-19T03:08:49;1.17;;;1.07;;
4748;SDS011;2388;53.582;9.962;2023-11-19T03:11:15;0.80;;;0.80;;
4748;SDS011;2388;53.582;9.962;2023-11-19T03:13:41;2.03;;;0.90;;
4748;SDS011;2388;53.582;9.962;2023-11-19T03:16:07;1.00;;;1.00;;
4748;SDS011;2388;53.582;9.962;2023-11-19T03:18:32;1.00;;;0.83;;
4748;SDS011;2388;53.582;9.962;2023-11-19T03:20:58;1.00;;;0.80;;
4748;SDS011;2388;53.582;9.962;2023-11-19T03:23:24;1.40;;;0.80;;
4748;SDS011;2388;53.582;9.962;2023-11-19T03:25:52;1.20;;;1.10;;
4748;SDS011;2388;53.582;9.962;2023-11-19T03:28:18;3.13;;;0.70;;
4748;SDS011;2388;53.582;9.962;2023-11-19T03:30:44;0.73;;;0.73;;
4748;SDS011;2388;53.582;9.962;2023-11-19T03:33:09;1.57;;;0.90;;
4748;SDS011;2388;53.582;9.962;2023-11-19T03:35:35;1.00;;;1.00;;
4748;SDS011;2388;53.582;9.962;2023-11-19T03:38:00;0.97;;;0.97;;
4748;SDS011;2388;53.582;9.962;2023-11-19T03:40:26;1.13;;;1.07;;
4748;SDS011;2388;53.582;9.962;2023-11-19T03:42:51;1.50;;;1.40;;
4748;SDS011;2388;53.582;9.962;2023-11-19T03:45:17;1.87;;;1.10;;
4748;SDS011;2388;53.582;9.962;2023-11-19T03:47:42;1.27;;;1.17;;
4748;SDS011;2388;53.582;9.962;2023-11-19T03:50:08;1.20;;;1.20;;
4748;SDS011;2388;53.582;9.962;2023-11-19T03:52:34;1.73;;;1.63;;
4748;SDS011;2388;53.582;9.962;2023-11-19T03:55:00;1.70;;;1.60;;
4748;SDS011;2388;53.582;9.962;2023-11-19T03:57:26;1.60;;;1.50;;
4748;SDS011;2388;53.582;9.962;2023-11-19T03:59:52;2.17;;;1.97;;
4748;SDS011;2388;53.582;9.962;2023-11-19T04:02:18;1.77;;;1.67;;
4748;SDS011;2388;53.582;9.962;2023-11-19T04:04:44;1.90;;;1.80;;
4748;SDS011;2388;53.582;9.962;2023-11-19T04:07:09;1.83;;;1.73;;
4748;SDS011;2388;53.582;9.962;2023-11-19T04:09:35;2.07;;;1.97;;
4748;SDS011;2388;53.582;9.962;2023-11-19T04:12:02;2.13;;;1.70;;
4748;SDS011;2388;53.582;9.962;2023-11-19T04:14:28;1.90;;;1.80;;
4748;SDS011;2388;53.582;9.962;2023-11-19T04:16:54;1.80;;;1.70;;
4748;SDS011;2388;53.582;9.962;2023-11-19T04:19:20;3.43;;;2.30;;
4748;SDS011;2388;53.582;9.962;2023-11-19T04:21:45;2.17;;;2.07;;
4748;SDS011;2388;53.582;9.962;2023-11-19T04:24:11;2.20;;;2.10;;
4748;SDS011;2388;53.582;9.962;2023-11-19T04:26:43;4.03;;;2.73;;
4748;SDS011;2388;53.582;9.962;2023-11-19T04:29:13;2.47;;;2.37;;
4748;SDS011;2388;53.582;9.962;2023-11-19T04:31:41;2.50;;;2.30;;
4748;SDS011;2388;53.582;9.962;2023-11-19T04:34:08;2.20;;;2.10;;
4748;SDS011;2388;53.582;9.962;2023-11-19T04:36:33;2.80;;;2.70;;
4748;SDS011;2388;53.582;9.962;2023-11-19T04:38:59;3.13;;;2.93;;
4748;SDS011;2388;53.582;9.962;2023-11-19T04:41:26;2.90;;;2.70;;
4748;SDS011;2388;53.582;9.962;2023-11-19T04:43:55;3.97;;;3.57;;
4748;SDS011;2388;53.582;9.962;2023-11-19T04:46:20;3.20;;;3.00;;
4748;SDS011;2388;53.582;9.962;2023-11-19T04:48:46;4.00;;;3.70;;
4748;SDS011;2388;53.582;9.962;2023-11-19T04:51:11;4.60;;;4.30;;
4748;SDS011;2388;53.582;9.962;2023-11-19T04:53:37;5.27;;;4.07;;
4748;SDS011;2388;53.582;9.962;2023-11-19T04:56:09;5.20;;;4.70;;
4748;SDS011;2388;53.582;9.962;2023-11-19T04:58:35;4.90;;;4.20;;
4748;SDS011;2388;53.582;9.962;2023-11-19T05:01:02;5.40;;;4.63;;
4748;SDS011;2388;53.582;9.962;2023-11-19T05:03:28;7.50;;;4.20;;
4748;SDS011;2388;53.582;9.962;2023-11-19T05:05:54;6.57;;;5.37;;
4748;SDS011;2388;53.582;9.962;2023-11-19T05:08:19;7.00;;;5.23;;
4748;SDS011;2388;53.582;9.962;2023-11-19T05:10:45;6.20;;;5.20;;
4748;SDS011;2388;53.582;9.962;2023-11-19T05:13:10;10.33;;;6.20;;
4748;SDS011;2388;53.582;9.962;2023-11-19T05:15:36;7.20;;;6.57;;
4748;SDS011;2388;53.582;9.962;2023-11-19T05:18:01;6.13;;;5.53;;
4748;SDS011;2388;53.582;9.962;2023-11-19T05:20:27;12.00;;;6.40;;
4748;SDS011;2388;53.582;9.962;2023-11-19T05:22:52;7.10;;;6.47;;
4748;SDS011;2388;53.582;9.962;2023-11-19T05:25:18;9.70;;;7.70;;
4748;SDS011;2388;53.582;9.962;2023-11-19T05:27:45;9.97;;;8.10;;
4748;SDS011;2388;53.582;9.962;2023-11-19T05:30:10;11.67;;;8.70;;
4748;SDS011;2388;53.582;9.962;2023-11-19T05:32:36;11.57;;;8.43;;
4748;SDS011;2388;53.582;9.962;2023-11-19T05:35:02;14.93;;;9.10;;
4748;SDS011;2388;53.582;9.962;2023-11-19T05:37:28;13.00;;;9.33;;
4748;SDS011;2388;53.582;9.962;2023-11-19T05:39:53;22.90;;;10.50;;
4748;SDS011;2388;53.582;9.962;2023-11-19T05:42:19;19.20;;;10.90;;
4748;SDS011;2388;53.582;9.962;2023-11-19T05:44:45;26.27;;;12.93;;
4748;SDS011;2388;53.582;9.962;2023-11-19T05:47:11;23.63;;;13.53;;
4748;SDS011;2388;53.582;9.962;2023-11-19T05:49:36;23.97;;;13.43;;
4748;SDS011;2388;53.582;9.962;2023-11-19T05:52:02;26.90;;;13.93;;
4748;SDS011;2388;53.582;9.962;2023-11-19T05:54:28;24.67;;;13.77;;
4748;SDS011;2388;53.582;9.962;2023-11-19T05:56:54;25.20;;;15.00;;
4748;SDS011;2388;53.582;9.962;2023-11-19T05:59:20;34.40;;;14.77;;
4748;SDS011;2388;53.582;9.962;2023-11-19T06:01:47;28.23;;;14.57;;
4748;SDS011;2388;53.582;9.962;2023-11-19T06:04:13;33.27;;;16.07;;
4748;SDS011;2388;53.582;9.962;2023-11-19T06:06:39;37.47;;;15.97;;
4748;SDS011;2388;53.582;9.962;2023-11-19T06:09:05;42.83;;;15.80;;
4748;SDS011;2388;53.582;9.962;2023-11-19T06:11:32;41.50;;;15.70;;
4748;SDS011;2388;53.582;9.962;2023-11-19T06:13:58;36.40;;;16.77;;
4748;SDS011;2388;53.582;9.962;2023-11-19T06:16:24;35.53;;;15.77;;
4748;SDS011;2388;53.582;9.962;2023-11-19T06:18:50;32.57;;;15.27;;
4748;SDS011;2388;53.582;9.962;2023-11-19T06:21:15;27.70;;;14.63;;
4748;SDS011;2388;53.582;9.962;2023-11-19T06:23:41;26.63;;;14.97;;
4748;SDS011;2388;53.582;9.962;2023-11-19T06:26:07;37.37;;;15.73;;
4748;SDS011;2388;53.582;9.962;2023-11-19T06:28:33;41.10;;;14.97;;
4748;SDS011;2388;53.582;9.962;2023-11-19T06:30:59;32.20;;;15.10;;
4748;SDS011;2388;53.582;9.962;2023-11-19T06:33:24;38.77;;;13.87;;
4748;SDS011;2388;53.582;9.962;2023-11-19T06:35:50;35.23;;;14.33;;
4748;SDS011;2388;53.582;9.962;2023-11-19T06:38:15;28.43;;;13.63;;
4748;SDS011;2388;53.582;9.962;2023-11-19T06:40:41;39.63;;;13.43;;
4748;SDS011;2388;53.582;9.962;2023-11-19T06:43:06;32.33;;;13.57;;
4748;SDS011;2388;53.582;9.962;2023-11-19T06:45:33;23.97;;;11.83;;
4748;SDS011;2388;53.582;9.962;2023-11-19T06:48:03;30.63;;;11.67;;
4748;SDS011;2388;53.582;9.962;2023-11-19T06:50:29;29.63;;;11.93;;
4748;SDS011;2388;53.582;9.962;2023-11-19T06:52:55;38.23;;;10.90;;
4748;SDS011;2388;53.582;9.962;2023-11-19T06:55:21;26.50;;;11.57;;
4748;SDS011;2388;53.582;9.962;2023-11-19T06:57:46;38.73;;;11.30;;
4748;SDS011;2388;53.582;9.962;2023-11-19T07:00:12;29.37;;;11.67;;
4748;SDS011;2388;53.582;9.962;2023-11-19T07:02:38;30.10;;;10.53;;
4748;SDS011;2388;53.582;9.962;2023-11-19T07:05:04;38.97;;;10.10;;
4748;SDS011;2388;53.582;9.962;2023-11-19T07:07:30;32.67;;;10.20;;
4748;SDS011;2388;53.582;9.962;2023-11-19T07:09:57;25.67;;;10.70;;
4748;SDS011;2388;53.582;9.962;2023-11-19T07:12:23;35.87;;;9.50;;
4748;SDS011;2388;53.582;9.962;2023-11-19T07:14:48;34.10;;;8.70;;
4748;SDS011;2388;53.582;9.962;2023-11-19T07:17:14;28.73;;;8.93;;
4748;SDS011;2388;53.582;9.962;2023-11-19T07:19:40;28.33;;;7.87;;
4748;SDS011;2388;53.582;9.962;2023-11-19T07:22:06;34.33;;;7.53;;
4748;SDS011;2388;53.582;9.962;2023-11-19T07:24:32;26.00;;;7.80;;
4748;SDS011;2388;53.582;9.962;2023-11-19T07:26:57;32.83;;;7.03;;
4748;SDS011;2388;53.582;9.962;2023-11-19T07:29:23;23.93;;;5.50;;
4748;SDS011;2388;53.582;9.962;2023-11-19T07:31:48;20.30;;;5.93;;
4748;SDS011;2388;53.582;9.962;2023-11-19T07:34:14;30.33;;;6.30;;
4748;SDS011;2388;53.582;9.962;2023-11-19T07:36:40;24.77;;;5.70;;
4748;SDS011;2388;53.582;9.962;2023-11-19T07:39:06;19.33;;;4.80;;
4748;SDS011;2388;53.582;9.962;2023-11-19T07:41:31;21.03;;;5.40;;
4748;SDS011;2388;53.582;9.962;2023-11-19T07:43:57;28.70;;;5.27;;
4748;SDS011;2388;53.582;9.962;2023-11-19T07:46:23;28.20;;;5.13;;
4748;SDS011;2388;53.582;9.962;2023-11-19T07:48:50;22.80;;;4.73;;
4748;SDS011;2388;53.582;9.962;2023-11-19T07:51:15;24.60;;;5.57;;
4748;SDS011;2388;53.582;9.962;2023-11-19T07:53:41;42.30;;;6.20;;
4748;SDS011;2388;53.582;9.962;2023-11-19T07:56:07;37.97;;;6.07;;
4748;SDS011;2388;53.582;9.962;2023-11-19T07:58:33;26.13;;;5.70;;
4748;SDS011;2388;53.582;9.962;2023-11-19T08:00:58;32.97;;;6.13;;
4748;SDS011;2388;53.582;9.962;2023-11-19T08:03:24;30.03;;;5.70;;
4748;SDS011;2388;53.582;9.962;2023-11-19T08:05:50;21.13;;;5.90;;
4748;SDS011;2388;53.582;9.962;2023-11-19T08:08:15;28.00;;;4.67;;
4748;SDS011;2388;53.582;9.962;2023-11-19T08:10:41;30.53;;;4.73;;
4748;SDS011;2388;53.582;9.962;2023-11-19T08:13:08;30.77;;;7.10;;
4748;SDS011;2388;53.582;9.962;2023-11-19T08:15:33;26.33;;;6.57;;
4748;SDS011;2388;53.582;9.962;2023-11-19T08:17:59;28.47;;;6.70;;
4748;SDS011;2388;53.582;9.962;2023-11-19T08:20:24;26.70;;;5.17;;
4748;SDS011;2388;53.582;9.962;2023-11-19T08:22:50;32.00;;;4.27;;
4748;SDS011;2388;53.582;9.962;2023-11-19T08:25:15;37.57;;;5.60;;
4748;SDS011;2388;53.582;9.962;2023-11-19T08:27:41;33.20;;;5.57;;
4748;SDS011;2388;53.582;9.962;2023-11-19T08:30:08;29.40;;;5.50;;
4748;SDS011;2388;53.582;9.962;2023-11-19T08:32:34;34.53;;;5.33;;
4748;SDS011;2388;53.582;9.962;2023-11-19T08:34:59;33.43;;;5.10;;
4748;SDS011;2388;53.582;9.962;2023-11-19T08:37:25;34.43;;;4.73;;
4748;SDS011;2388;53.582;9.962;2023-11-19T08:39:50;29.00;;;4.50;;
4748;SDS011;2388;53.582;9.962;2023-11-19T08:42:16;24.70;;;4.80;;
4748;SDS011;2388;53.582;9.962;2023-11-19T08:44:42;31.20;;;5.40;;
4748;SDS011;2388;53.582;9.962;2023-11-19T08:47:09;30.43;;;4.90;;
4748;SDS011;2388;53.582;9.962;2023-11-19T08:49:36;28.70;;;5.20;;
4748;SDS011;2388;53.582;9.962;2023-11-19T08:52:01;32.13;;;5.33;;
4748;SDS011;2388;53.582;9.962;2023-11-19T08:54:27;31.63;;;5.07;;
4748;SDS011;2388;53.582;9.962;2023-11-19T08:56:52;34.10;;;8.70;;
4748;SDS011;2388;53.582;9.962;2023-11-19T08:59:18;49.90;;;16.40;;
4748;SDS011;2388;53.582;9.962;2023-11-19T09:01:44;40.50;;;11.33;;
4748;SDS011;2388;53.582;9.962;2023-11-19T09:04:09;34.33;;;6.30;;
4748;SDS011;2388;53.582;9.962;2023-11-19T09:06:35;24.43;;;5.67;;
4748;SDS011;2388;53.582;9.962;2023-11-19T09:09:01;38.43;;;6.10;;
4748;SDS011;2388;53.582;9.962;2023-11-19T09:11:28;31.30;;;4.70;;
4748;SDS011;2388;53.582;9.962;2023-11-19T09:13:54;27.70;;;4.93;;
4748;SDS011;2388;53.582;9.962;2023-11-19T09:16:19;31.97;;;4.40;;
4748;SDS011;2388;53.582;9.962;2023-11-19T09:18:45;26.43;;;5.30;;
4748;SDS011;2388;53.582;9.962;2023-11-19T09:21:11;27.27;;;5.40;;
4748;SDS011;2388;53.582;9.962;2023-11-19T09:23:37;22.90;;;4.70;;
4748;SDS011;2388;53.582;9.962;2023-11-19T09:26:04;34.93;;;4.93;;
4748;SDS011;2388;53.582;9.962;2023-11-19T09:28:30;28.93;;;5.00;;
4748;SDS011;2388;53.582;9.962;2023-11-19T09:30:56;26.10;;;4.43;;
4748;SDS011;2388;53.582;9.962;2023-11-19T09:33:21;29.60;;;7.00;;
4748;SDS011;2388;53.582;9.962;2023-11-19T09:35:46;31.40;;;4.80;;
4748;SDS011;2388;53.582;9.962;2023-11-19T09:38:14;25.97;;;4.50;;
4748;SDS011;2388;53.582;9.962;2023-11-19T09:40:40;23.73;;;4.67;;
4748;SDS011;2388;53.582;9.962;2023-11-19T09:43:06;32.70;;;5.30;;
4748;SDS011;2388;53.582;9.962;2023-11-19T09:45:32;35.10;;;4.77;;
4748;SDS011;2388;53.582;9.962;2023-11-19T09:48:17;37.50;;;5.07;;
4748;SDS011;2388;53.582;9.962;2023-11-19T09:50:44;25.00;;;5.00;;
4748;SDS011;2388;53.582;9.962;2023-11-19T09:53:11;44.93;;;6.80;;
4748;SDS011;2388;53.582;9.962;2023-11-19T09:55:37;29.17;;;5.50;;
4748;SDS011;2388;53.582;9.962;2023-11-19T09:58:02;32.70;;;5.03;;
4748;SDS011;2388;53.582;9.962;2023-11-19T10:00:28;37.20;;;6.13;;
4748;SDS011;2388;53.582;9.962;2023-11-19T10:02:55;36.70;;;5.47;;
4748;SDS011;2388;53.582;9.962;2023-11-19T10:05:22;34.77;;;5.23;;
4748;SDS011;2388;53.582;9.962;2023-11-19T10:07:49;28.33;;;7.27;;
4748;SDS011;2388;53.582;9.962;2023-11-19T10:10:15;35.80;;;7.17;;
4748;SDS011;2388;53.582;9.962;2023-11-19T10:12:44;46.00;;;6.73;;
4748;SDS011;2388;53.582;9.962;2023-11-19T10:15:13;27.57;;;4.60;;
4748;SDS011;2388;53.582;9.962;2023-11-19T10:17:44;26.03;;;5.00;;
4748;SDS011;2388;53.582;9.962;2023-11-19T10:20:10;34.70;;;5.67;;
4748;SDS011;2388;53.582;9.962;2023-11-19T10:22:39;31.27;;;5.40;;
4748;SDS011;2388;53.582;9.962;2023-11-19T10:27:53;28.50;;;5.10;;
4748;SDS011;2388;53.582;9.962;2023-11-19T10:30:26;25.93;;;4.90;;
4748;SDS011;2388;53.582;9.962;2023-11-19T10:33:02;32.33;;;6.17;;
4748;SDS011;2388;53.582;9.962;2023-11-19T10:35:28;40.40;;;4.93;;
4748;SDS011;2388;53.582;9.962;2023-11-19T10:37:53;38.77;;;5.97;;
4748;SDS011;2388;53.582;9.962;2023-11-19T10:40:19;35.00;;;5.90;;
4748;SDS011;2388;53.582;9.962;2023-11-19T10:42:45;44.80;;;5.60;;
4748;SDS011;2388;53.582;9.962;2023-11-19T10:45:23;70.73;;;33.63;;
4748;SDS011;2388;53.582;9.962;2023-11-19T10:47:49;65.20;;;21.53;;
4748;SDS011;2388;53.582;9.962;2023-11-19T10:50:16;28.10;;;4.63;;
4748;SDS011;2388;53.582;9.962;2023-11-19T10:52:42;34.13;;;5.60;;
4748;SDS011;2388;53.582;9.962;2023-11-19T10:55:09;24.27;;;4.53;;
4748;SDS011;2388;53.582;9.962;2023-11-19T10:57:38;24.13;;;5.33;;
4748;SDS011;2388;53.582;9.962;2023-11-19T11:00:08;38.47;;;5.33;;
4748;SDS011;2388;53.582;9.962;2023-11-19T11:02:37;33.93;;;5.97;;
4748;SDS011;2388;53.582;9.962;2023-11-19T11:05:06;36.47;;;5.70;;
4748;SDS011;2388;53.582;9.962;2023-11-19T11:07:33;33.57;;;6.73;;
4748;SDS011;2388;53.582;9.962;2023-11-19T11:10:00;37.00;;;6.20;;
4748;SDS011;2388;53.582;9.962;2023-11-19T11:12:26;38.70;;;5.43;;
4748;SDS011;2388;53.582;9.962;2023-11-19T11:14:53;30.23;;;5.53;;
4748;SDS011;2388;53.582;9.962;2023-11-19T11:17:20;31.60;;;5.50;;
4748;SDS011;2388;53.582;9.962;2023-11-19T11:19:50;46.73;;;6.00;;
4748;SDS011;2388;53.582;9.962;2023-11-19T11:22:16;32.43;;;5.40;;
4748;SDS011;2388;53.582;9.962;2023-11-19T11:32:41;35.57;;;4.67;;
4748;SDS011;2388;53.582;9.962;2023-11-19T11:38:08;39.00;;;7.87;;
4748;SDS011;2388;53.582;9.962;2023-11-19T11:40:34;47.07;;;6.13;;
4748;SDS011;2388;53.582;9.962;2023-11-19T11:43:01;25.70;;;4.40;;
4748;SDS011;2388;53.582;9.962;2023-11-19T11:45:36;33.37;;;5.47;;
4748;SDS011;2388;53.582;9.962;2023-11-19T11:48:08;35.03;;;4.23;;
4748;SDS011;2388;53.582;9.962;2023-11-19T11:50:50;37.17;;;6.10;;
4748;SDS011;2388;53.582;9.962;2023-11-19T11:53:18;26.20;;;4.20;;
4748;SDS011;2388;53.582;9.962;2023-11-19T11:58:18;32.83;;;5.33;;
4748;SDS011;2388;53.582;9.962;2023-11-19T12:00:46;27.43;;;4.30;;
4748;SDS011;2388;53.582;9.962;2023-11-19T12:03:12;28.63;;;5.43;;
4748;SDS011;2388;53.582;9.962;2023-11-19T12:05:38;20.23;;;4.60;;
4748;SDS011;2388;53.582;9.962;2023-11-19T12:08:06;23.47;;;4.57;;
4748;SDS011;2388;53.582;9.962;2023-11-19T12:10:45;24.50;;;5.33;;
4748;SDS011;2388;53.582;9.962;2023-11-19T12:13:12;41.60;;;5.77;;
4748;SDS011;2388;53.582;9.962;2023-11-19T12:18:31;25.10;;;5.03;;
4748;SDS011;2388;53.582;9.962;2023-11-19T12:20:57;31.50;;;7.17;;
4748;SDS011;2388;53.582;9.962;2023-11-19T12:23:28;23.70;;;3.87;;
4748;SDS011;2388;53.582;9.962;2023-11-19T12:25:54;28.63;;;5.00;;
4748;SDS011;2388;53.582;9.962;2023-11-19T12:28:20;29.40;;;5.17;;
4748;SDS011;2388;53.582;9.962;2023-11-19T12:30:45;33.83;;;6.97;;
4748;SDS011;2388;53.582;9.962;2023-11-19T12:33:13;26.60;;;5.03;;
4748;SDS011;2388;53.582;9.962;2023-11-19T12:35:43;36.20;;;5.00;;
4748;SDS011;2388;53.582;9.962;2023-11-19T12:41:07;29.33;;;4.00;;
4748;SDS011;2388;53.582;9.962;2023-11-19T12:43:38;30.07;;;5.43;;
4748;SDS011;2388;53.582;9.962;2023-11-19T12:46:16;28.60;;;5.27;;
4748;SDS011;2388;53.582;9.962;2023-11-19T12:48:46;29.73;;;5.63;;
4748;SDS011;2388;53.582;9.962;2023-11-19T12:51:12;25.33;;;4.77;;
4748;SDS011;2388;53.582;9.962;2023-11-19T12:53:51;20.80;;;4.20;;
4748;SDS011;2388;53.582;9.962;2023-11-19T12:56:20;24.70;;;5.47;;
4748;SDS011;2388;53.582;9.962;2023-11-19T12:58:46;24.33;;;5.27;;
4748;SDS011;2388;53.582;9.962;2023-11-19T13:01:15;25.10;;;5.03;;
4748;SDS011;2388;53.582;9.962;2023-11-19T13:03:42;25.93;;;5.13;;
4748;SDS011;2388;53.582;9.962;2023-11-19T13:06:10;30.70;;;5.30;;
4748;SDS011;2388;53.582;9.962;2023-11-19T13:08:39;31.70;;;5.10;;
4748;SDS011;2388;53.582;9.962;2023-11-19T13:11:09;30.83;;;7.07;;
4748;SDS011;2388;53.582;9.962;2023-11-19T13:13:53;25.40;;;6.83;;
4748;SDS011;2388;53.582;9.962;2023-11-19T13:16:26;31.93;;;7.97;;
4748;SDS011;2388;53.582;9.962;2023-11-19T13:18:53;31.93;;;8.10;;
4748;SDS011;2388;53.582;9.962;2023-11-19T13:21:18;27.40;;;5.23;;
4748;SDS011;2388;53.582;9.962;2023-11-19T13:23:44;29.00;;;5.67;;
4748;SDS011;2388;53.582;9.962;2023-11-19T13:26:10;20.67;;;4.30;;
4748;SDS011;2388;53.582;9.962;2023-11-19T13:28:36;26.50;;;4.30;;
4748;SDS011;2388;53.582;9.962;2023-11-19T13:31:02;35.07;;;6.20;;
4748;SDS011;2388;53.582;9.962;2023-11-19T13:33:28;23.50;;;4.13;;
4748;SDS011;2388;53.582;9.962;2023-11-19T13:35:55;19.73;;;4.77;;
4748;SDS011;2388;53.582;9.962;2023-11-19T13:38:21;32.57;;;5.83;;
4748;SDS011;2388;53.582;9.962;2023-11-19T13:40:48;33.90;;;5.00;;
4748;SDS011;2388;53.582;9.962;2023-11-19T13:43:13;18.33;;;4.00;;
4748;SDS011;2388;53.582;9.962;2023-11-19T13:45:39;28.50;;;5.13;;
4748;SDS011;2388;53.582;9.962;2023-11-19T13:48:04;22.20;;;4.60;;
4748;SDS011;2388;53.582;9.962;2023-11-19T13:50:30;26.60;;;4.93;;
4748;SDS011;2388;53.582;9.962;2023-11-19T13:52:57;23.70;;;5.27;;
4748;SDS011;2388;53.582;9.962;2023-11-19T13:55:22;25.27;;;4.27;;
4748;SDS011;2388;53.582;9.962;2023-11-19T13:57:48;29.03;;;5.27;;
4748;SDS011;2388;53.582;9.962;2023-11-19T14:00:13;29.83;;;4.13;;
4748;SDS011;2388;53.582;9.962;2023-11-19T14:02:44;23.40;;;4.63;;
4748;SDS011;2388;53.582;9.962;2023-11-19T14:05:11;33.13;;;5.70;;
4748;SDS011;2388;53.582;9.962;2023-11-19T14:07:38;25.10;;;4.77;;
4748;SDS011;2388;53.582;9.962;2023-11-19T14:10:04;23.23;;;4.67;;
4748;SDS011;2388;53.582;9.962;2023-11-19T14:12:31;23.37;;;3.93;;
4748;SDS011;2388;53.582;9.962;2023-11-19T14:14:57;30.33;;;4.60;;
4748;SDS011;2388;53.582;9.962;2023-11-19T14:17:23;27.73;;;4.10;;
4748;SDS011;2388;53.582;9.962;2023-11-19T14:19:50;22.73;;;5.37;;
4748;SDS011;2388;53.582;9.962;2023-11-19T14:22:15;30.10;;;4.80;;
4748;SDS011;2388;53.582;9.962;2023-11-19T14:24:41;20.63;;;5.07;;
4748;SDS011;2388;53.582;9.962;2023-11-19T14:27:07;26.03;;;5.40;;
4748;SDS011;2388;53.582;9.962;2023-11-19T14:29:33;29.83;;;5.30;;
4748;SDS011;2388;53.582;9.962;2023-11-19T14:32:00;26.40;;;4.43;;
4748;SDS011;2388;53.582;9.962;2023-11-19T14:34:25;37.77;;;9.60;;
4748;SDS011;2388;53.582;9.962;2023-11-19T14:36:51;22.07;;;3.60;;
4748;SDS011;2388;53.582;9.962;2023-11-19T14:39:17;26.70;;;5.70;;
4748;SDS011;2388;53.582;9.962;2023-11-19T14:41:43;20.50;;;3.40;;
4748;SDS011;2388;53.582;9.962;2023-11-19T14:44:09;24.80;;;3.80;;
4748;SDS011;2388;53.582;9.962;2023-11-19T14:46:35;22.60;;;5.17;;
4748;SDS011;2388;53.582;9.962;2023-11-19T14:49:00;41.23;;;12.73;;
4748;SDS011;2388;53.582;9.962;2023-11-19T14:51:26;44.00;;;14.13;;
4748;SDS011;2388;53.582;9.962;2023-11-19T14:53:52;21.80;;;4.60;;
4748;SDS011;2388;53.582;9.962;2023-11-19T14:56:17;14.60;;;2.93;;
4748;SDS011;2388;53.582;9.962;2023-11-19T14:58:43;18.40;;;3.10;;
4748;SDS011;2388;53.582;9.962;2023-11-19T15:01:13;37.00;;;18.97;;
4748;SDS011;2388;53.582;9.962;2023-11-19T15:03:39;14.37;;;2.70;;
4748;SDS011;2388;53.582;9.962;2023-11-19T15:06:05;11.97;;;3.13;;
4748;SDS011;2388;53.582;9.962;2023-11-19T15:08:31;11.80;;;1.80;;
4748;SDS011;2388;53.582;9.962;2023-11-19T15:10:57;9.37;;;1.23;;
4748;SDS011;2388;53.582;9.962;2023-11-19T15:13:23;10.83;;;1.47;;
4748;SDS011;2388;53.582;9.962;2023-11-19T15:15:49;2.77;;;0.83;;
4748;SDS011;2388;53.582;9.962;2023-11-19T15:18:14;7.17;;;1.60;;
4748;SDS011;2388;53.582;9.962;2023-11-19T15:20:41;1.90;;;0.80;;
4748;SDS011;2388;53.582;9.962;2023-11-19T15:23:07;2.83;;;0.70;;
4748;SDS011;2388;53.582;9.962;2023-11-19T15:25:34;3.00;;;0.80;;